sensor_id;sensor_type;location;lat;lon;timestamp;pressure;altitude;pressure_sealevel;temperature;humidity
62524;BME280;53689;56.878;60.672;2023-04-07T00:01:49;99090.06;;;22.47;19.69
62524;BME280;53689;56.878;60.672;2023-04-07T00:04:17;99092.25;;;22.28;19.55
62524;BME280;53689;56.878;60.672;2023-04-07T00:06:44;99093.19;;;22.20;19.68
62524;BME280;53689;56.878;60.672;2023-04-07T00:09:11;99105.56;;;22.29;18.44
62524;BME280;53689;56.878;60.672;2023-04-07T00:11:39;99103.06;;;22.43;18.46
62524;BME280;53689;56.878;60.672;2023-04-07T00:14:08;99101.72;;;22.24;19.13
62524;BME280;53689;56.878;60.672;2023-04-07T00:16:35;99095.44;;;22.31;18.17
62524;BME280;53689;56.878;60.672;2023-04-07T00:19:03;99096.38;;;22.39;18.48
62524;BME280;53689;56.878;60.672;2023-04-07T00:21:30;99109.13;;;22.45;17.30
62524;BME280;53689;56.878;60.672;2023-04-07T00:23:57;99109.78;;;22.47;18.08
62524;BME280;53689;56.878;60.672;2023-04-07T00:26:24;99105.09;;;22.49;17.79
62524;BME280;53689;56.878;60.672;2023-04-07T00:28:51;99105.41;;;22.46;17.55
62524;BME280;53689;56.878;60.672;2023-04-07T00:31:20;99113.47;;;22.31;19.24
62524;BME280;53689;56.878;60.672;2023-04-07T00:33:48;99109.81;;;22.24;19.64
62524;BME280;53689;56.878;60.672;2023-04-07T00:36:15;99125.16;;;22.23;18.83
62524;BME280;53689;56.878;60.672;2023-04-07T00:38:42;99119.22;;;22.28;18.76
62524;BME280;53689;56.878;60.672;2023-04-07T00:41:09;99131.69;;;22.29;18.26
62524;BME280;53689;56.878;60.672;2023-04-07T00:43:36;99137.16;;;22.21;17.89
62524;BME280;53689;56.878;60.672;2023-04-07T00:46:04;99130.44;;;22.16;18.10
62524;BME280;53689;56.878;60.672;2023-04-07T00:48:33;99144.06;;;22.23;17.86
62524;BME280;53689;56.878;60.672;2023-04-07T00:51:00;99152.78;;;22.25;18.19
62524;BME280;53689;56.878;60.672;2023-04-07T00:53:28;99157.22;;;22.18;18.59
62524;BME280;53689;56.878;60.672;2023-04-07T00:55:55;99155.06;;;22.13;17.95
62524;BME280;53689;56.878;60.672;2023-04-07T00:58:22;99154.78;;;22.31;18.42
62524;BME280;53689;56.878;60.672;2023-04-07T01:00:50;99147.81;;;22.37;17.82
62524;BME280;53689;56.878;60.672;2023-04-07T01:03:21;99156.94;;;22.13;18.19
62524;BME280;53689;56.878;60.672;2023-04-07T01:05:54;99164.47;;;21.94;18.16
62524;BME280;53689;56.878;60.672;2023-04-07T01:08:23;99168.19;;;21.93;19.61
62524;BME280;53689;56.878;60.672;2023-04-07T01:10:55;99175.63;;;21.91;19.67
62524;BME280;53689;56.878;60.672;2023-04-07T01:13:27;99184.00;;;21.96;17.95
62524;BME280;53689;56.878;60.672;2023-04-07T01:16:15;99187.16;;;22.08;18.17
62524;BME280;53689;56.878;60.672;2023-04-07T01:18:47;99195.53;;;22.37;18.11
62524;BME280;53689;56.878;60.672;2023-04-07T01:21:18;99192.00;;;22.36;17.99
62524;BME280;53689;56.878;60.672;2023-04-07T01:23:51;99193.34;;;22.09;19.20
62524;BME280;53689;56.878;60.672;2023-04-07T01:26:27;99210.31;;;21.94;19.37
62524;BME280;53689;56.878;60.672;2023-04-07T01:29:02;99211.91;;;21.80;20.16
62524;BME280;53689;56.878;60.672;2023-04-07T01:31:32;99216.16;;;21.74;19.67
62524;BME280;53689;56.878;60.672;2023-04-07T01:34:00;99221.16;;;21.78;20.03
62524;BME280;53689;56.878;60.672;2023-04-07T01:36:29;99224.38;;;21.81;20.35
62524;BME280;53689;56.878;60.672;2023-04-07T01:38:57;99236.47;;;21.85;19.78
62524;BME280;53689;56.878;60.672;2023-04-07T01:41:24;99232.53;;;21.96;18.90
62524;BME280;53689;56.878;60.672;2023-04-07T01:43:52;99235.75;;;21.92;17.67
62524;BME280;53689;56.878;60.672;2023-04-07T01:46:22;99247.44;;;21.84;18.99
62524;BME280;53689;56.878;60.672;2023-04-07T01:48:51;99248.47;;;21.83;19.41
62524;BME280;53689;56.878;60.672;2023-04-07T01:51:19;99246.16;;;22.03;17.41
62524;BME280;53689;56.878;60.672;2023-04-07T01:53:47;99260.03;;;22.23;17.18
62524;BME280;53689;56.878;60.672;2023-04-07T01:56:14;99263.25;;;22.18;18.07
62524;BME280;53689;56.878;60.672;2023-04-07T01:58:45;99262.38;;;22.26;17.45
62524;BME280;53689;56.878;60.672;2023-04-07T02:01:15;99276.88;;;22.25;17.52
62524;BME280;53689;56.878;60.672;2023-04-07T02:03:43;99270.72;;;22.40;17.70
62524;BME280;53689;56.878;60.672;2023-04-07T02:06:14;99271.94;;;22.84;17.43
62524;BME280;53689;56.878;60.672;2023-04-07T02:08:45;99269.72;;;23.26;16.83
62524;BME280;53689;56.878;60.672;2023-04-07T02:11:13;99276.63;;;22.43;16.83
62524;BME280;53689;56.878;60.672;2023-04-07T02:13:41;99287.91;;;22.15;17.82
62524;BME280;53689;56.878;60.672;2023-04-07T02:16:11;99296.69;;;22.09;18.10
62524;BME280;53689;56.878;60.672;2023-04-07T02:18:39;99297.56;;;22.01;19.07
62524;BME280;53689;56.878;60.672;2023-04-07T02:21:07;99305.59;;;22.10;18.87
62524;BME280;53689;56.878;60.672;2023-04-07T02:23:36;99305.41;;;22.20;17.75
62524;BME280;53689;56.878;60.672;2023-04-07T02:26:04;99311.13;;;22.25;17.42
62524;BME280;53689;56.878;60.672;2023-04-07T02:28:32;99312.84;;;22.17;17.01
62524;BME280;53689;56.878;60.672;2023-04-07T02:30:59;99320.44;;;22.14;17.23
62524;BME280;53689;56.878;60.672;2023-04-07T02:33:26;99318.13;;;22.02;16.87
62524;BME280;53689;56.878;60.672;2023-04-07T02:35:53;99323.56;;;21.94;17.63
62524;BME280;53689;56.878;60.672;2023-04-07T02:38:20;99335.34;;;21.93;17.15
62524;BME280;53689;56.878;60.672;2023-04-07T02:40:49;99330.47;;;21.88;17.10
62524;BME280;53689;56.878;60.672;2023-04-07T02:43:16;99328.50;;;21.74;16.86
62524;BME280;53689;56.878;60.672;2023-04-07T02:45:43;99336.28;;;21.69;16.94
62524;BME280;53689;56.878;60.672;2023-04-07T02:48:10;99343.13;;;21.88;16.73
62524;BME280;53689;56.878;60.672;2023-04-07T02:50:37;99346.13;;;21.93;16.96
62524;BME280;53689;56.878;60.672;2023-04-07T02:53:04;99347.88;;;21.69;17.00
62524;BME280;53689;56.878;60.672;2023-04-07T02:55:32;99352.88;;;21.89;16.34
62524;BME280;53689;56.878;60.672;2023-04-07T02:58:01;99358.59;;;21.94;17.08
62524;BME280;53689;56.878;60.672;2023-04-07T03:00:41;99357.81;;;21.77;17.80
62524;BME280;53689;56.878;60.672;2023-04-07T03:03:12;99361.97;;;21.88;16.93
62524;BME280;53689;56.878;60.672;2023-04-07T03:05:43;99372.44;;;21.91;17.19
62524;BME280;53689;56.878;60.672;2023-04-07T03:08:11;99370.28;;;21.78;15.86
62524;BME280;53689;56.878;60.672;2023-04-07T03:10:39;99367.78;;;21.35;17.00
62524;BME280;53689;56.878;60.672;2023-04-07T03:13:09;99372.47;;;21.74;15.67
62524;BME280;53689;56.878;60.672;2023-04-07T03:15:36;99380.88;;;21.71;16.01
62524;BME280;53689;56.878;60.672;2023-04-07T03:18:04;99386.44;;;21.61;16.67
62524;BME280;53689;56.878;60.672;2023-04-07T03:20:32;99389.13;;;21.61;16.80
62524;BME280;53689;56.878;60.672;2023-04-07T03:23:06;99387.28;;;21.62;17.63
62524;BME280;53689;56.878;60.672;2023-04-07T03:25:33;99396.72;;;21.66;17.60
62524;BME280;53689;56.878;60.672;2023-04-07T03:28:01;99386.94;;;21.65;17.35
62524;BME280;53689;56.878;60.672;2023-04-07T03:30:33;99394.56;;;21.70;17.83
62524;BME280;53689;56.878;60.672;2023-04-07T03:33:01;99399.94;;;21.70;17.90
62524;BME280;53689;56.878;60.672;2023-04-07T03:35:29;99400.59;;;21.72;18.45
62524;BME280;53689;56.878;60.672;2023-04-07T03:37:56;99404.59;;;21.93;18.45
62524;BME280;53689;56.878;60.672;2023-04-07T03:40:24;99403.03;;;22.07;16.49
62524;BME280;53689;56.878;60.672;2023-04-07T03:42:52;99404.22;;;22.04;18.31
62524;BME280;53689;56.878;60.672;2023-04-07T03:45:21;99396.41;;;21.69;17.72
62524;BME280;53689;56.878;60.672;2023-04-07T03:47:52;99408.81;;;21.62;17.76
62524;BME280;53689;56.878;60.672;2023-04-07T03:50:20;99406.31;;;21.60;17.40
62524;BME280;53689;56.878;60.672;2023-04-07T03:53:10;99404.97;;;21.56;18.47
62524;BME280;53689;56.878;60.672;2023-04-07T03:55:38;99407.84;;;21.63;18.18
62524;BME280;53689;56.878;60.672;2023-04-07T03:58:12;99405.16;;;21.63;17.79
62524;BME280;53689;56.878;60.672;2023-04-07T04:00:41;99423.81;;;21.48;18.98
62524;BME280;53689;56.878;60.672;2023-04-07T04:03:12;99421.03;;;20.73;17.10
62524;BME280;53689;56.878;60.672;2023-04-07T04:05:57;99427.34;;;20.47;15.95
62524;BME280;53689;56.878;60.672;2023-04-07T04:08:29;99430.19;;;20.11;14.66
62524;BME280;53689;56.878;60.672;2023-04-07T04:10:57;99425.31;;;19.62;14.69
62524;BME280;53689;56.878;60.672;2023-04-07T04:13:29;99428.50;;;19.39;13.97
62524;BME280;53689;56.878;60.672;2023-04-07T04:16:01;99428.22;;;19.68;15.14
62524;BME280;53689;56.878;60.672;2023-04-07T04:18:30;99432.22;;;19.91;16.69
62524;BME280;53689;56.878;60.672;2023-04-07T04:20:57;99439.59;;;19.89;15.83
62524;BME280;53689;56.878;60.672;2023-04-07T04:23:25;99437.78;;;19.71;16.63
62524;BME280;53689;56.878;60.672;2023-04-07T04:25:54;99442.25;;;19.36;16.90
62524;BME280;53689;56.878;60.672;2023-04-07T04:28:21;99441.13;;;19.47;15.99
62524;BME280;53689;56.878;60.672;2023-04-07T04:30:49;99449.19;;;19.65;17.12
62524;BME280;53689;56.878;60.672;2023-04-07T04:33:17;99451.75;;;19.93;18.05
62524;BME280;53689;56.878;60.672;2023-04-07T04:35:55;99455.91;;;19.87;18.27
62524;BME280;53689;56.878;60.672;2023-04-07T04:38:23;99444.53;;;20.55;16.99
62524;BME280;53689;56.878;60.672;2023-04-07T04:41:02;99461.16;;;20.93;18.30
62524;BME280;53689;56.878;60.672;2023-04-07T04:43:30;99464.28;;;20.10;17.84
62524;BME280;53689;56.878;60.672;2023-04-07T04:45:59;99458.91;;;20.10;18.10
62524;BME280;53689;56.878;60.672;2023-04-07T04:48:30;99470.56;;;18.08;18.73
62524;BME280;53689;56.878;60.672;2023-04-07T04:50:58;99468.19;;;18.05;16.73
62524;BME280;53689;56.878;60.672;2023-04-07T04:53:26;99478.56;;;16.80;16.95
62524;BME280;53689;56.878;60.672;2023-04-07T04:55:59;99467.97;;;16.69;16.45
62524;BME280;53689;56.878;60.672;2023-04-07T04:58:38;99479.53;;;16.38;16.13
62524;BME280;53689;56.878;60.672;2023-04-07T05:01:06;99468.81;;;17.40;16.70
62524;BME280;53689;56.878;60.672;2023-04-07T05:03:41;99479.16;;;18.22;14.90
62524;BME280;53689;56.878;60.672;2023-04-07T05:06:17;99485.94;;;19.28;16.07
62524;BME280;53689;56.878;60.672;2023-04-07T05:08:47;99486.50;;;19.32;13.84
62524;BME280;53689;56.878;60.672;2023-04-07T05:11:16;99489.91;;;18.78;17.36
62524;BME280;53689;56.878;60.672;2023-04-07T05:13:48;99475.81;;;17.80;17.16
62524;BME280;53689;56.878;60.672;2023-04-07T05:16:15;99484.88;;;17.59;17.27
62524;BME280;53689;56.878;60.672;2023-04-07T05:18:42;99499.81;;;17.32;16.03
62524;BME280;53689;56.878;60.672;2023-04-07T05:21:10;99492.75;;;17.51;15.94
62524;BME280;53689;56.878;60.672;2023-04-07T05:23:39;99490.22;;;17.79;16.04
62524;BME280;53689;56.878;60.672;2023-04-07T05:26:08;99496.38;;;18.85;16.13
62524;BME280;53689;56.878;60.672;2023-04-07T05:28:35;99500.97;;;19.03;16.38
62524;BME280;53689;56.878;60.672;2023-04-07T05:31:07;99494.94;;;19.37;17.28
62524;BME280;53689;56.878;60.672;2023-04-07T05:33:34;99494.44;;;19.96;16.75
62524;BME280;53689;56.878;60.672;2023-04-07T05:36:02;99492.69;;;19.14;16.54
62524;BME280;53689;56.878;60.672;2023-04-07T05:38:31;99504.94;;;18.70;17.79
62524;BME280;53689;56.878;60.672;2023-04-07T05:41:08;99501.22;;;19.46;17.97
62524;BME280;53689;56.878;60.672;2023-04-07T05:43:36;99510.81;;;19.30;17.89
62524;BME280;53689;56.878;60.672;2023-04-07T05:46:04;99500.16;;;19.38;17.10
62524;BME280;53689;56.878;60.672;2023-04-07T05:48:36;99503.78;;;19.47;18.11
62524;BME280;53689;56.878;60.672;2023-04-07T05:51:05;99497.41;;;19.48;17.69
62524;BME280;53689;56.878;60.672;2023-04-07T05:53:33;99507.97;;;19.32;17.72
62524;BME280;53689;56.878;60.672;2023-04-07T05:56:00;99503.25;;;19.25;17.23
62524;BME280;53689;56.878;60.672;2023-04-07T05:58:45;99509.06;;;18.93;17.10
62524;BME280;53689;56.878;60.672;2023-04-07T06:01:14;99510.94;;;19.83;16.16
62524;BME280;53689;56.878;60.672;2023-04-07T06:03:42;99513.50;;;19.48;13.53
62524;BME280;53689;56.878;60.672;2023-04-07T06:06:17;99508.25;;;19.83;14.68
62524;BME280;53689;56.878;60.672;2023-04-07T06:08:46;99512.75;;;19.74;12.96
62524;BME280;53689;56.878;60.672;2023-04-07T06:11:14;99522.91;;;19.89;15.98
62524;BME280;53689;56.878;60.672;2023-04-07T06:13:42;99522.50;;;20.20;15.36
62524;BME280;53689;56.878;60.672;2023-04-07T06:16:11;99517.66;;;19.79;16.30
62524;BME280;53689;56.878;60.672;2023-04-07T06:18:39;99526.72;;;18.57;14.51
62524;BME280;53689;56.878;60.672;2023-04-07T06:21:07;99525.50;;;19.36;15.20
62524;BME280;53689;56.878;60.672;2023-04-07T06:23:35;99521.88;;;20.00;14.83
62524;BME280;53689;56.878;60.672;2023-04-07T06:26:05;99532.09;;;19.60;14.13
62524;BME280;53689;56.878;60.672;2023-04-07T06:28:33;99526.59;;;20.06;15.00
62524;BME280;53689;56.878;60.672;2023-04-07T06:31:01;99516.44;;;20.18;14.16
62524;BME280;53689;56.878;60.672;2023-04-07T06:33:30;99522.16;;;20.49;14.78
62524;BME280;53689;56.878;60.672;2023-04-07T06:35:58;99525.56;;;20.25;14.05
62524;BME280;53689;56.878;60.672;2023-04-07T06:38:27;99535.38;;;19.72;15.91
62524;BME280;53689;56.878;60.672;2023-04-07T06:40:55;99532.50;;;18.91;15.09
62524;BME280;53689;56.878;60.672;2023-04-07T06:43:22;99526.59;;;19.15;17.08
62524;BME280;53689;56.878;60.672;2023-04-07T06:45:55;99529.25;;;19.98;13.71
62524;BME280;53689;56.878;60.672;2023-04-07T06:48:23;99524.06;;;19.86;15.50
62524;BME280;53689;56.878;60.672;2023-04-07T06:50:52;99524.69;;;19.98;13.43
62524;BME280;53689;56.878;60.672;2023-04-07T06:53:19;99526.59;;;20.06;12.96
62524;BME280;53689;56.878;60.672;2023-04-07T06:55:47;99531.16;;;20.05;14.07
62524;BME280;53689;56.878;60.672;2023-04-07T06:58:15;99525.69;;;19.24;13.60
62524;BME280;53689;56.878;60.672;2023-04-07T07:00:43;99529.81;;;19.01;13.16
62524;BME280;53689;56.878;60.672;2023-04-07T07:03:10;99522.13;;;18.40;14.83
62524;BME280;53689;56.878;60.672;2023-04-07T07:05:38;99528.34;;;18.68;12.56
62524;BME280;53689;56.878;60.672;2023-04-07T07:08:08;99523.13;;;18.39;13.87
62524;BME280;53689;56.878;60.672;2023-04-07T07:10:36;99530.53;;;18.65;13.66
62524;BME280;53689;56.878;60.672;2023-04-07T07:13:03;99535.72;;;17.99;14.06
62524;BME280;53689;56.878;60.672;2023-04-07T07:15:33;99537.56;;;17.59;13.82
62524;BME280;53689;56.878;60.672;2023-04-07T07:18:01;99526.31;;;17.75;12.70
62524;BME280;53689;56.878;60.672;2023-04-07T07:20:28;99521.88;;;18.23;13.82
62524;BME280;53689;56.878;60.672;2023-04-07T07:22:55;99512.13;;;18.98;13.25
62524;BME280;53689;56.878;60.672;2023-04-07T07:25:24;99516.97;;;19.59;15.23
62524;BME280;53689;56.878;60.672;2023-04-07T07:27:51;99532.31;;;19.48;13.79
62524;BME280;53689;56.878;60.672;2023-04-07T07:30:19;99523.44;;;18.92;15.55
62524;BME280;53689;56.878;60.672;2023-04-07T07:32:48;99519.84;;;19.11;15.19
62524;BME280;53689;56.878;60.672;2023-04-07T07:35:15;99528.81;;;19.02;14.99
62524;BME280;53689;56.878;60.672;2023-04-07T07:37:43;99525.63;;;19.16;14.37
62524;BME280;53689;56.878;60.672;2023-04-07T07:40:10;99536.22;;;18.52;14.21
62524;BME280;53689;56.878;60.672;2023-04-07T07:42:38;99523.88;;;18.31;14.05
62524;BME280;53689;56.878;60.672;2023-04-07T07:45:06;99533.44;;;18.71;12.75
62524;BME280;53689;56.878;60.672;2023-04-07T07:47:34;99528.16;;;18.52;13.09
62524;BME280;53689;56.878;60.672;2023-04-07T07:50:02;99533.03;;;18.94;12.88
62524;BME280;53689;56.878;60.672;2023-04-07T07:52:30;99533.50;;;19.18;12.28
62524;BME280;53689;56.878;60.672;2023-04-07T07:54:57;99526.91;;;19.12;12.37
62524;BME280;53689;56.878;60.672;2023-04-07T07:57:24;99533.28;;;19.11;12.52
62524;BME280;53689;56.878;60.672;2023-04-07T07:59:53;99543.28;;;18.81;12.71
62524;BME280;53689;56.878;60.672;2023-04-07T08:02:20;99536.63;;;18.85;12.66
62524;BME280;53689;56.878;60.672;2023-04-07T08:04:48;99542.41;;;19.18;11.86
62524;BME280;53689;56.878;60.672;2023-04-07T08:07:15;99545.56;;;19.32;11.86
62524;BME280;53689;56.878;60.672;2023-04-07T08:09:43;99539.09;;;19.24;13.01
62524;BME280;53689;56.878;60.672;2023-04-07T08:12:11;99543.69;;;19.14;13.41
62524;BME280;53689;56.878;60.672;2023-04-07T08:14:38;99541.19;;;19.12;12.59
62524;BME280;53689;56.878;60.672;2023-04-07T08:17:07;99542.47;;;19.08;12.94
62524;BME280;53689;56.878;60.672;2023-04-07T08:19:35;99535.50;;;19.34;12.38
62524;BME280;53689;56.878;60.672;2023-04-07T08:22:03;99534.06;;;19.76;14.98
62524;BME280;53689;56.878;60.672;2023-04-07T08:24:31;99547.75;;;20.27;13.61
62524;BME280;53689;56.878;60.672;2023-04-07T08:26:59;99546.34;;;19.78;13.36
62524;BME280;53689;56.878;60.672;2023-04-07T08:29:27;99547.03;;;19.80;12.50
62524;BME280;53689;56.878;60.672;2023-04-07T08:31:57;99544.06;;;19.47;12.30
62524;BME280;53689;56.878;60.672;2023-04-07T08:34:26;99549.88;;;19.43;12.61
62524;BME280;53689;56.878;60.672;2023-04-07T08:36:54;99553.03;;;19.38;11.60
62524;BME280;53689;56.878;60.672;2023-04-07T08:39:22;99550.56;;;19.45;12.17
62524;BME280;53689;56.878;60.672;2023-04-07T08:41:50;99547.56;;;19.48;12.82
62524;BME280;53689;56.878;60.672;2023-04-07T08:44:17;99551.44;;;19.45;12.31
62524;BME280;53689;56.878;60.672;2023-04-07T08:46:48;99550.13;;;19.86;11.92
62524;BME280;53689;56.878;60.672;2023-04-07T08:49:17;99539.81;;;19.63;12.08
62524;BME280;53689;56.878;60.672;2023-04-07T08:51:45;99550.03;;;19.23;12.66
62524;BME280;53689;56.878;60.672;2023-04-07T08:54:13;99537.72;;;18.92;12.07
62524;BME280;53689;56.878;60.672;2023-04-07T08:56:41;99535.81;;;19.31;13.76
62524;BME280;53689;56.878;60.672;2023-04-07T08:59:10;99534.06;;;19.21;13.54
62524;BME280;53689;56.878;60.672;2023-04-07T09:01:37;99529.78;;;19.29;12.12
62524;BME280;53689;56.878;60.672;2023-04-07T09:04:06;99535.97;;;19.11;11.73
62524;BME280;53689;56.878;60.672;2023-04-07T09:06:34;99535.31;;;19.45;12.09
62524;BME280;53689;56.878;60.672;2023-04-07T09:09:03;99542.09;;;19.21;11.87
62524;BME280;53689;56.878;60.672;2023-04-07T09:11:33;99545.59;;;19.04;11.69
62524;BME280;53689;56.878;60.672;2023-04-07T09:14:02;99544.78;;;19.21;11.63
62524;BME280;53689;56.878;60.672;2023-04-07T09:16:30;99544.66;;;19.23;12.65
62524;BME280;53689;56.878;60.672;2023-04-07T09:18:57;99553.25;;;19.26;11.64
62524;BME280;53689;56.878;60.672;2023-04-07T09:21:25;99550.28;;;19.02;11.45
62524;BME280;53689;56.878;60.672;2023-04-07T09:23:53;99549.03;;;19.24;14.12
62524;BME280;53689;56.878;60.672;2023-04-07T09:26:23;99543.91;;;20.03;13.20
62524;BME280;53689;56.878;60.672;2023-04-07T09:28:52;99542.59;;;19.71;12.58
62524;BME280;53689;56.878;60.672;2023-04-07T09:31:19;99530.47;;;20.03;12.49
62524;BME280;53689;56.878;60.672;2023-04-07T09:33:46;99536.75;;;19.76;12.68
62524;BME280;53689;56.878;60.672;2023-04-07T09:36:14;99533.22;;;20.12;12.96
62524;BME280;53689;56.878;60.672;2023-04-07T09:38:42;99533.34;;;20.36;13.93
62524;BME280;53689;56.878;60.672;2023-04-07T09:41:10;99528.88;;;20.80;13.57
62524;BME280;53689;56.878;60.672;2023-04-07T09:43:39;99536.94;;;20.45;13.56
62524;BME280;53689;56.878;60.672;2023-04-07T09:46:10;99532.06;;;20.41;13.65
62524;BME280;53689;56.878;60.672;2023-04-07T09:48:38;99525.88;;;20.48;12.46
62524;BME280;53689;56.878;60.672;2023-04-07T09:51:05;99532.31;;;20.56;14.79
62524;BME280;53689;56.878;60.672;2023-04-07T09:53:40;99531.09;;;20.50;13.80
62524;BME280;53689;56.878;60.672;2023-04-07T09:56:07;99533.53;;;20.70;13.99
62524;BME280;53689;56.878;60.672;2023-04-07T09:58:36;99525.19;;;20.81;14.29
62524;BME280;53689;56.878;60.672;2023-04-07T10:01:05;99536.19;;;20.96;14.49
62524;BME280;53689;56.878;60.672;2023-04-07T10:03:33;99540.63;;;21.14;14.24
62524;BME280;53689;56.878;60.672;2023-04-07T10:06:01;99534.22;;;21.06;14.24
62524;BME280;53689;56.878;60.672;2023-04-07T10:08:29;99535.59;;;21.19;13.31
62524;BME280;53689;56.878;60.672;2023-04-07T10:10:57;99526.84;;;21.25;14.55
62524;BME280;53689;56.878;60.672;2023-04-07T10:13:25;99535.31;;;21.30;14.69
62524;BME280;53689;56.878;60.672;2023-04-07T10:15:54;99528.53;;;21.26;14.45
62524;BME280;53689;56.878;60.672;2023-04-07T10:18:23;99538.50;;;21.26;14.34
62524;BME280;53689;56.878;60.672;2023-04-07T10:20:54;99525.75;;;20.93;14.65
62524;BME280;53689;56.878;60.672;2023-04-07T10:23:23;99529.44;;;20.84;14.76
62524;BME280;53689;56.878;60.672;2023-04-07T10:25:51;99531.31;;;20.91;14.33
62524;BME280;53689;56.878;60.672;2023-04-07T10:28:20;99526.94;;;20.90;14.64
62524;BME280;53689;56.878;60.672;2023-04-07T10:30:49;99530.19;;;21.11;14.68
62524;BME280;53689;56.878;60.672;2023-04-07T10:36:04;99529.31;;;21.02;15.48
62524;BME280;53689;56.878;60.672;2023-04-07T10:38:32;99528.97;;;21.05;14.57
62524;BME280;53689;56.878;60.672;2023-04-07T10:40:59;99526.94;;;20.90;14.59
62524;BME280;53689;56.878;60.672;2023-04-07T10:43:36;99535.34;;;20.96;13.93
62524;BME280;53689;56.878;60.672;2023-04-07T10:46:03;99530.72;;;21.23;14.86
62524;BME280;53689;56.878;60.672;2023-04-07T10:48:30;99525.72;;;21.44;15.57
62524;BME280;53689;56.878;60.672;2023-04-07T10:51:11;99532.88;;;21.19;14.02
62524;BME280;53689;56.878;60.672;2023-04-07T10:56:21;99531.91;;;21.20;15.43
62524;BME280;53689;56.878;60.672;2023-04-07T10:58:48;99538.50;;;21.26;13.80
62524;BME280;53689;56.878;60.672;2023-04-07T11:01:35;99532.72;;;21.12;14.81
62524;BME280;53689;56.878;60.672;2023-04-07T11:04:03;99532.41;;;21.24;14.45
62524;BME280;53689;56.878;60.672;2023-04-07T11:06:32;99534.91;;;21.17;14.81
62524;BME280;53689;56.878;60.672;2023-04-07T11:08:59;99537.28;;;21.28;15.96
62524;BME280;53689;56.878;60.672;2023-04-07T11:11:36;99527.75;;;21.59;15.17
62524;BME280;53689;56.878;60.672;2023-04-07T11:14:03;99533.53;;;20.70;17.17
62524;BME280;53689;56.878;60.672;2023-04-07T11:16:38;99540.97;;;21.11;16.59
62524;BME280;53689;56.878;60.672;2023-04-07T11:19:05;99533.59;;;21.38;15.68
62524;BME280;53689;56.878;60.672;2023-04-07T11:21:33;99540.03;;;21.45;15.90
62524;BME280;53689;56.878;60.672;2023-04-07T11:24:01;99528.72;;;21.41;14.25
62524;BME280;53689;56.878;60.672;2023-04-07T11:26:28;99533.63;;;21.46;14.38
62524;BME280;53689;56.878;60.672;2023-04-07T11:28:55;99540.88;;;21.62;16.37
62524;BME280;53689;56.878;60.672;2023-04-07T11:31:23;99540.25;;;21.68;15.49
62524;BME280;53689;56.878;60.672;2023-04-07T11:33:51;99535.16;;;21.48;15.80
62524;BME280;53689;56.878;60.672;2023-04-07T11:36:24;99530.94;;;21.46;14.88
62524;BME280;53689;56.878;60.672;2023-04-07T11:38:53;99535.63;;;21.35;15.07
62524;BME280;53689;56.878;60.672;2023-04-07T11:41:21;99531.78;;;21.38;13.67
62524;BME280;53689;56.878;60.672;2023-04-07T11:43:48;99533.25;;;20.20;16.95
62524;BME280;53689;56.878;60.672;2023-04-07T11:46:29;99535.38;;;21.04;16.16
62524;BME280;53689;56.878;60.672;2023-04-07T11:49:06;99534.13;;;21.49;13.76
62524;BME280;53689;56.878;60.672;2023-04-07T11:51:34;99539.38;;;21.51;16.56
62524;BME280;53689;56.878;60.672;2023-04-07T11:54:02;99535.53;;;21.70;16.49
62524;BME280;53689;56.878;60.672;2023-04-07T11:56:30;99528.63;;;21.76;16.08
62524;BME280;53689;56.878;60.672;2023-04-07T11:59:07;99530.81;;;21.81;16.18
62524;BME280;53689;56.878;60.672;2023-04-07T12:01:38;99532.84;;;21.70;14.58
62524;BME280;53689;56.878;60.672;2023-04-07T12:04:06;99528.78;;;21.66;16.42
62524;BME280;53689;56.878;60.672;2023-04-07T12:06:39;99528.78;;;21.66;15.50
62524;BME280;53689;56.878;60.672;2023-04-07T12:09:08;99533.34;;;21.82;16.66
62524;BME280;53689;56.878;60.672;2023-04-07T12:11:35;99529.13;;;21.80;14.14
62524;BME280;53689;56.878;60.672;2023-04-07T12:14:03;99534.03;;;21.68;13.44
62524;BME280;53689;56.878;60.672;2023-04-07T12:16:30;99528.16;;;21.72;15.99
62524;BME280;53689;56.878;60.672;2023-04-07T12:18:57;99532.19;;;21.85;15.69
62524;BME280;53689;56.878;60.672;2023-04-07T12:21:24;99520.38;;;21.78;15.63
62524;BME280;53689;56.878;60.672;2023-04-07T12:23:51;99533.19;;;21.84;17.36
62524;BME280;53689;56.878;60.672;2023-04-07T12:26:20;99526.22;;;21.65;15.89
62524;BME280;53689;56.878;60.672;2023-04-07T12:28:49;99527.13;;;21.82;16.30
62524;BME280;53689;56.878;60.672;2023-04-07T12:31:16;99531.00;;;21.79;15.32
62524;BME280;53689;56.878;60.672;2023-04-07T12:33:43;99526.59;;;21.95;16.37
62524;BME280;53689;56.878;60.672;2023-04-07T12:36:10;99530.66;;;21.90;16.84
62524;BME280;53689;56.878;60.672;2023-04-07T12:38:38;99536.22;;;21.89;15.58
62524;BME280;53689;56.878;60.672;2023-04-07T12:41:05;99534.88;;;22.01;16.00
62524;BME280;53689;56.878;60.672;2023-04-07T12:43:34;99531.81;;;22.04;16.57
62524;BME280;53689;56.878;60.672;2023-04-07T12:46:01;99524.91;;;22.02;15.80
62524;BME280;53689;56.878;60.672;2023-04-07T12:48:29;99527.09;;;22.07;16.50
62524;BME280;53689;56.878;60.672;2023-04-07T12:50:56;99524.75;;;22.03;16.18
62524;BME280;53689;56.878;60.672;2023-04-07T12:53:24;99524.91;;;22.10;15.20
62524;BME280;53689;56.878;60.672;2023-04-07T12:55:51;99520.19;;;22.12;16.03
62524;BME280;53689;56.878;60.672;2023-04-07T12:58:18;99526.28;;;22.06;16.26
62524;BME280;53689;56.878;60.672;2023-04-07T13:00:48;99513.13;;;22.03;15.80
62524;BME280;53689;56.878;60.672;2023-04-07T13:03:15;99516.00;;;22.01;15.72
62524;BME280;53689;56.878;60.672;2023-04-07T13:05:43;99520.69;;;21.99;15.33